createdAt,value
2018-03-23T00:02:05.487Z,60.50
2018-03-23T00:04:35.187Z,66.30
2018-03-23T00:07:04.678Z,70.97
2018-03-23T00:09:34.924Z,70.37
2018-03-23T00:12:05.544Z,69.15
2018-03-23T00:14:35.182Z,77.50
2018-03-23T00:17:06.939Z,78.13
2018-03-23T00:19:37.702Z,73.47
2018-03-23T00:22:07.140Z,74.10
2018-03-23T00:24:38.036Z,79.30
2018-03-23T00:27:07.996Z,88.13
2018-03-23T00:29:37.635Z,84.50
2018-03-23T00:32:06.951Z,87.80
2018-03-23T00:34:37.365Z,85.23
2018-03-23T00:37:08.370Z,83.90
2018-03-23T00:39:38.651Z,85.47
2018-03-23T00:42:09.094Z,79.20
2018-03-23T00:44:39.693Z,86.87
2018-03-23T00:47:09.369Z,87.03
2018-03-23T00:49:38.394Z,86.20
2018-03-23T00:52:07.788Z,76.40
2018-03-23T00:54:37.936Z,95.80
2018-03-23T00:57:08.200Z,93.50
2018-03-23T00:59:37.787Z,82.97
2018-03-23T01:02:06.952Z,79.23
2018-03-23T01:04:36.684Z,93.97
2018-03-23T01:07:06.440Z,70.93
2018-03-23T01:09:36.106Z,74.80
2018-03-23T01:12:05.917Z,78.33
2018-03-23T01:14:34.810Z,77.73
2018-03-23T01:17:04.082Z,79.43
2018-03-23T01:19:35.172Z,85.23
2018-03-23T01:22:04.383Z,75.97
2018-03-23T01:24:33.404Z,76.87
2018-03-23T01:27:03.254Z,76.60
2018-03-23T01:29:32.489Z,73.37
2018-03-23T01:32:02.113Z,74.07
2018-03-23T01:34:31.530Z,77.80
2018-03-23T01:37:00.938Z,72.73
2018-03-23T01:39:29.591Z,72.83
2018-03-23T01:41:58.609Z,76.37
2018-03-23T01:44:28.747Z,59.63
2018-03-23T01:46:57.731Z,59.57
2018-03-23T01:49:28.289Z,59.57
2018-03-23T01:51:56.991Z,59.57
2018-03-23T01:54:25.690Z,52.77
2018-03-23T01:56:54.559Z,56.80
2018-03-23T01:59:23.855Z,56.60
2018-03-23T02:01:52.877Z,54.03
2018-03-23T02:04:22.070Z,63.75
2018-03-23T02:06:51.165Z,57.67
2018-03-23T02:09:20.364Z,50.90
2018-03-23T02:11:49.620Z,56.08
2018-03-23T02:14:18.437Z,54.45
2018-03-23T02:16:47.703Z,39.57
2018-03-23T02:19:17.663Z,48.92
2018-03-23T02:21:47.682Z,49.70
2018-03-23T02:24:16.097Z,49.53
2018-03-23T02:26:45.964Z,48.87
2018-03-23T02:29:14.661Z,45.10
2018-03-23T02:31:43.443Z,48.20
2018-03-23T02:34:12.021Z,49.92
2018-03-23T02:36:40.604Z,50.20
2018-03-23T02:39:09.290Z,49.20
2018-03-23T02:41:37.750Z,48.30
2018-03-23T02:44:06.173Z,46.75
2018-03-23T02:46:34.974Z,44.90
2018-03-23T02:49:05.415Z,46.95
2018-03-23T02:51:34.680Z,51.30
2018-03-23T02:54:03.461Z,47.88
2018-03-23T02:56:33.417Z,41.78
2018-03-23T02:59:03.283Z,49.50
2018-03-23T03:01:32.136Z,48.87
2018-03-23T03:04:01.044Z,52.80
2018-03-23T03:06:29.760Z,59.83
2018-03-23T03:08:58.228Z,53.10
2018-03-23T03:11:27.124Z,62.13
2018-03-23T03:13:55.693Z,69.23
2018-03-23T03:16:24.396Z,65.72
2018-03-23T03:18:53.065Z,64.63
2018-03-23T03:21:22.259Z,66.10
2018-03-23T03:23:51.629Z,72.00
2018-03-23T03:26:20.628Z,72.70
2018-03-23T03:28:49.147Z,71.13
2018-03-23T03:31:17.615Z,71.10
2018-03-23T03:33:46.579Z,68.83
2018-03-23T03:36:14.909Z,76.40
2018-03-23T03:38:44.299Z,68.03
2018-03-23T03:41:12.689Z,79.63
2018-03-23T03:43:41.564Z,80.27
2018-03-23T03:46:09.901Z,78.90
2018-03-23T03:48:39.449Z,88.97
2018-03-23T03:51:08.335Z,83.77
2018-03-23T03:53:36.580Z,86.57
2018-03-23T03:56:05.108Z,89.68
2018-03-23T03:58:34.206Z,75.60
2018-03-23T04:01:04.350Z,89.07
2018-03-23T04:03:33.406Z,81.87
2018-03-23T04:06:02.028Z,82.93
2018-03-23T04:08:31.437Z,85.27
2018-03-23T04:11:00.899Z,79.20
2018-03-23T04:13:29.847Z,79.60
2018-03-23T04:15:58.347Z,75.27
2018-03-23T04:18:27.474Z,73.87
2018-03-23T04:20:56.263Z,65.33
2018-03-23T04:23:24.543Z,72.17
2018-03-23T04:25:55.549Z,74.53
2018-03-23T04:28:24.594Z,86.20
2018-03-23T04:30:53.553Z,65.13
2018-03-23T04:33:23.126Z,69.50
2018-03-23T04:35:52.243Z,72.83
2018-03-23T04:38:20.734Z,68.73
2018-03-23T04:40:49.235Z,69.70
2018-03-23T04:43:17.557Z,61.03
2018-03-23T04:45:45.870Z,68.95
2018-03-23T04:48:14.472Z,60.70
2018-03-23T04:50:42.820Z,64.30
2018-03-23T04:53:11.708Z,53.13
2018-03-23T04:55:40.546Z,60.07
2018-03-23T04:58:10.218Z,56.73
2018-03-23T05:00:39.003Z,56.30
2018-03-23T05:03:07.548Z,58.97
2018-03-23T05:05:36.195Z,51.50
2018-03-23T05:08:05.591Z,53.65
2018-03-23T05:10:34.429Z,52.83
2018-03-23T05:13:03.155Z,49.83
2018-03-23T05:15:31.903Z,47.33
2018-03-23T05:18:00.493Z,44.33
2018-03-23T05:20:29.505Z,46.57
2018-03-23T05:22:58.665Z,44.40
2018-03-23T05:25:28.714Z,45.27
2018-03-23T05:27:57.704Z,46.33
2018-03-23T05:30:26.551Z,40.67
2018-03-23T05:32:55.340Z,44.07
2018-03-23T05:35:25.142Z,44.73
2018-03-23T05:37:53.972Z,50.43
2018-03-23T05:40:22.580Z,84.90
2018-03-23T05:42:51.667Z,220.33
2018-03-23T05:45:20.369Z,44.40
2018-03-23T05:47:49.311Z,44.33
2018-03-23T05:50:17.648Z,44.50
2018-03-23T05:52:47.289Z,41.57
2018-03-23T05:55:17.349Z,43.60
2018-03-23T05:57:47.080Z,41.93
2018-03-23T06:00:16.824Z,51.33
2018-03-23T06:02:45.515Z,46.63
2018-03-23T06:05:14.346Z,41.87
2018-03-23T06:07:43.349Z,40.63
2018-03-23T06:10:13.463Z,39.70
2018-03-23T06:12:42.561Z,47.03
2018-03-23T06:15:12.256Z,47.83
2018-03-23T06:17:41.530Z,54.13
2018-03-23T06:20:10.775Z,53.23
2018-03-23T06:22:39.511Z,50.67
2018-03-23T06:25:07.992Z,58.13
2018-03-23T06:27:37.806Z,60.10
2018-03-23T06:30:08.220Z,61.53
2018-03-23T06:32:36.870Z,72.97
2018-03-23T06:35:06.585Z,66.47
2018-03-23T06:37:36.936Z,55.97
2018-03-23T06:40:07.238Z,63.27
2018-03-23T06:42:37.364Z,65.27
2018-03-23T06:45:07.194Z,62.37
2018-03-23T06:47:36.385Z,58.13
2018-03-23T06:50:05.588Z,63.87
2018-03-23T06:52:34.460Z,55.00
2018-03-23T06:55:04.164Z,55.70
2018-03-23T06:57:33.892Z,58.47
2018-03-23T07:00:03.721Z,69.00
2018-03-23T07:02:32.595Z,61.73
2018-03-23T07:05:01.606Z,61.57
2018-03-23T07:07:31.045Z,62.83
2018-03-23T07:10:00.469Z,71.67
2018-03-23T07:12:31.311Z,55.67
2018-03-23T07:15:00.782Z,62.80
2018-03-23T07:17:31.784Z,65.40
2018-03-23T07:20:01.062Z,73.40
2018-03-23T07:22:30.481Z,77.80
2018-03-23T07:24:59.828Z,69.63
2018-03-23T07:27:28.982Z,72.43
2018-03-23T07:29:58.515Z,72.33
2018-03-23T07:32:27.946Z,64.93
2018-03-23T07:34:58.323Z,69.00
2018-03-23T07:37:27.981Z,66.23
2018-03-23T07:40:03.333Z,61.47
2018-03-23T07:42:54.057Z,66.50
2018-03-23T07:45:25.427Z,67.70
2018-03-23T07:47:55.325Z,70.67
2018-03-23T07:50:24.812Z,58.13
2018-03-23T07:52:54.008Z,59.13
2018-03-23T07:55:24.534Z,66.13
2018-03-23T07:57:53.571Z,55.63
2018-03-23T08:00:22.929Z,61.17
2018-03-23T08:02:52.478Z,54.47
2018-03-23T08:05:21.457Z,64.83
2018-03-23T08:07:54.386Z,59.17
2018-03-23T08:10:24.058Z,59.50
2018-03-23T08:12:53.230Z,57.70
2018-03-23T08:15:22.528Z,56.40
2018-03-23T08:17:52.115Z,58.43
2018-03-23T08:20:24.863Z,54.63
2018-03-23T08:22:55.384Z,53.97
2018-03-23T08:25:24.410Z,47.50
2018-03-23T08:27:54.588Z,47.90
2018-03-23T08:30:24.346Z,53.03
2018-03-23T08:32:54.338Z,45.30
2018-03-23T08:35:23.437Z,49.57
2018-03-23T08:37:53.429Z,50.40
2018-03-23T08:40:24.344Z,51.57
2018-03-23T08:42:53.460Z,48.67
2018-03-23T08:45:24.547Z,45.93
2018-03-23T08:47:58.320Z,52.43
2018-03-23T08:50:28.199Z,45.57
2018-03-23T08:52:58.071Z,44.53
2018-03-23T08:55:27.780Z,43.60
2018-03-23T08:57:58.399Z,46.23
2018-03-23T09:00:28.468Z,40.57
2018-03-23T09:02:57.843Z,45.57
2018-03-23T09:05:27.666Z,46.80
2018-03-23T09:07:56.915Z,43.87
2018-03-23T09:10:26.140Z,46.63
2018-03-23T09:12:56.329Z,41.67
2018-03-23T09:15:26.925Z,51.13
2018-03-23T09:17:56.802Z,42.63
2018-03-23T09:20:26.703Z,35.73
2018-03-23T09:22:57.539Z,40.47
2018-03-23T09:25:27.749Z,30.73
2018-03-23T09:28:00.306Z,31.77
2018-03-23T09:30:30.456Z,35.87
2018-03-23T09:33:00.794Z,31.53
2018-03-23T09:35:30.905Z,37.13
2018-03-23T09:38:00.756Z,38.30
2018-03-23T09:40:29.639Z,42.17
2018-03-23T09:42:58.700Z,44.27
2018-03-23T09:45:28.478Z,45.77
2018-03-23T09:47:58.098Z,47.73
2018-03-23T09:50:27.466Z,51.20
2018-03-23T09:52:56.530Z,50.13
2018-03-23T09:55:26.486Z,43.40
2018-03-23T09:57:56.869Z,44.03
2018-03-23T10:00:26.999Z,44.23
2018-03-23T10:02:56.009Z,43.53
2018-03-23T10:05:25.085Z,42.50
2018-03-23T10:07:53.989Z,42.60
2018-03-23T10:10:23.200Z,39.70
2018-03-23T10:12:52.354Z,39.93
2018-03-23T10:15:22.289Z,35.30
2018-03-23T10:17:51.238Z,39.50
2018-03-23T10:20:21.872Z,38.10
2018-03-23T10:22:50.904Z,37.87
2018-03-23T10:25:23.184Z,37.17
2018-03-23T10:27:52.286Z,43.23
2018-03-23T10:30:21.260Z,34.57
2018-03-23T10:32:50.406Z,39.57
2018-03-23T10:35:21.296Z,47.07
2018-03-23T10:37:50.415Z,42.57
2018-03-23T10:40:19.233Z,41.47
2018-03-23T10:42:48.234Z,42.33
2018-03-23T10:45:17.621Z,39.53
2018-03-23T10:47:46.630Z,45.77
2018-03-23T10:50:15.532Z,43.57
2018-03-23T10:52:45.556Z,39.60
2018-03-23T10:55:15.470Z,37.43
2018-03-23T10:57:45.481Z,40.57
2018-03-23T11:00:15.687Z,39.60
2018-03-23T11:02:49.363Z,37.07
2018-03-23T11:05:18.634Z,42.23
2018-03-23T11:07:47.629Z,45.53
2018-03-23T11:10:16.654Z,48.50
2018-03-23T11:12:46.382Z,45.83
2018-03-23T11:15:15.440Z,46.60
2018-03-23T11:17:45.317Z,43.63
2018-03-23T11:20:14.997Z,39.77
2018-03-23T11:22:44.176Z,44.50
2018-03-23T11:25:13.032Z,44.50
2018-03-23T11:27:42.172Z,49.10
2018-03-23T11:30:11.230Z,45.57
2018-03-23T11:32:40.287Z,40.93
2018-03-23T11:35:09.301Z,40.40
2018-03-23T11:37:38.372Z,36.23
2018-03-23T11:40:08.105Z,44.93
2018-03-23T11:42:37.201Z,45.63
2018-03-23T11:45:06.283Z,49.43
2018-03-23T11:47:36.122Z,42.77
2018-03-23T11:50:05.197Z,50.27
2018-03-23T11:52:34.233Z,51.77
2018-03-23T11:55:03.216Z,44.17
2018-03-23T11:57:33.492Z,42.87
2018-03-23T12:00:03.778Z,46.87
2018-03-23T12:02:33.327Z,51.77
2018-03-23T12:05:02.258Z,50.03
2018-03-23T12:07:31.241Z,45.17
2018-03-23T12:10:00.305Z,37.40
2018-03-23T12:12:30.117Z,45.23
2018-03-23T12:14:59.039Z,31.00
2018-03-23T12:17:27.820Z,30.37
2018-03-23T12:19:56.829Z,26.03
2018-03-23T12:22:25.563Z,26.17
2018-03-23T12:24:55.155Z,26.33
2018-03-23T12:27:24.979Z,25.87
2018-03-23T12:29:54.594Z,31.50
2018-03-23T12:32:24.352Z,30.57
2018-03-23T12:34:53.416Z,35.63
2018-03-23T12:37:22.455Z,37.50
2018-03-23T12:39:52.268Z,31.27
2018-03-23T12:42:22.464Z,34.83
2018-03-23T12:44:51.506Z,27.83
2018-03-23T12:47:21.108Z,27.17
2018-03-23T12:49:50.766Z,25.57
2018-03-23T12:52:19.667Z,25.00
2018-03-23T12:54:49.270Z,20.77
2018-03-23T12:57:18.300Z,21.47
2018-03-23T12:59:47.157Z,21.73
2018-03-23T13:02:16.464Z,19.23
2018-03-23T13:04:45.519Z,17.47
2018-03-23T13:07:14.505Z,18.03
2018-03-23T13:09:43.393Z,15.87
2018-03-23T13:12:12.984Z,15.07
2018-03-23T13:14:41.865Z,16.43
2018-03-23T13:17:11.279Z,17.33
2018-03-23T13:19:41.096Z,16.57
2018-03-23T13:22:10.462Z,15.37
2018-03-23T13:24:39.222Z,13.47
2018-03-23T13:27:08.345Z,16.07
2018-03-23T13:29:38.138Z,17.10
2018-03-23T13:32:07.267Z,16.83
2018-03-23T13:34:36.222Z,15.43
2018-03-23T13:37:05.703Z,14.50
2018-03-23T13:39:35.699Z,15.23
2018-03-23T13:42:06.215Z,15.27
2018-03-23T13:44:36.168Z,16.73
2018-03-23T13:47:05.752Z,14.20
2018-03-23T13:49:35.198Z,14.03
2018-03-23T13:52:05.091Z,14.37
2018-03-23T13:54:33.987Z,17.00
2018-03-23T13:57:03.340Z,16.37
2018-03-23T14:00:03.588Z,15.23
2018-03-23T14:02:32.398Z,16.70
2018-03-23T14:05:01.098Z,18.30
2018-03-23T14:07:29.850Z,16.60
2018-03-23T14:09:58.758Z,17.37
2018-03-23T14:12:27.677Z,15.43
2018-03-23T14:14:56.807Z,15.90
2018-03-23T14:17:26.481Z,17.37
2018-03-23T14:19:55.861Z,17.90
2018-03-23T14:22:24.860Z,21.07
2018-03-23T14:24:53.608Z,20.03
2018-03-23T14:27:22.361Z,19.43
2018-03-23T14:29:51.321Z,21.50
2018-03-23T14:32:20.138Z,20.23
2018-03-23T14:34:49.125Z,20.23
2018-03-23T14:37:17.910Z,22.57
2018-03-23T14:39:46.751Z,23.23
2018-03-23T14:42:16.437Z,21.90
2018-03-23T14:44:45.933Z,26.67
2018-03-23T14:47:14.696Z,25.03
2018-03-23T14:49:43.775Z,22.83
2018-03-23T14:52:12.763Z,24.30
2018-03-23T14:54:42.637Z,26.27
2018-03-23T14:57:11.689Z,25.70
2018-03-23T14:59:41.221Z,23.30
2018-03-23T15:02:10.186Z,28.17
2018-03-23T15:04:39.003Z,23.00
2018-03-23T15:07:08.834Z,27.53
2018-03-23T15:09:38.869Z,22.33
2018-03-23T15:12:07.862Z,25.43
2018-03-23T15:14:37.197Z,27.47
2018-03-23T15:17:06.126Z,25.70
2018-03-23T15:19:35.803Z,25.10
2018-03-23T15:22:05.760Z,29.73
2018-03-23T15:24:34.985Z,24.23
2018-03-23T15:27:04.261Z,24.77
2018-03-23T15:29:33.997Z,26.07
2018-03-23T15:32:03.117Z,23.47
2018-03-23T15:34:32.307Z,23.80
2018-03-23T15:37:01.366Z,21.40
2018-03-23T15:39:30.577Z,24.60
2018-03-23T15:41:59.466Z,25.27
2018-03-23T15:44:28.460Z,23.33
2018-03-23T15:46:57.197Z,23.07
2018-03-23T15:49:26.078Z,24.07
2018-03-23T15:51:55.117Z,19.10
2018-03-23T15:54:24.087Z,20.80
2018-03-23T15:56:53.454Z,20.00
2018-03-23T15:59:22.412Z,20.87
2018-03-23T16:01:51.224Z,19.30
2018-03-23T16:04:21.939Z,20.03
2018-03-23T16:06:51.803Z,19.00
2018-03-23T16:09:21.387Z,25.10
2018-03-23T16:11:50.216Z,20.20
2018-03-23T16:14:20.167Z,21.13
2018-03-23T16:16:49.123Z,20.93
2018-03-23T16:19:18.205Z,21.37
2018-03-23T16:21:47.309Z,18.30
2018-03-23T16:24:16.750Z,17.03
2018-03-23T16:26:45.693Z,18.83
2018-03-23T16:29:15.985Z,21.27
2018-03-23T16:31:44.917Z,19.40
2018-03-23T16:34:14.742Z,17.63
2018-03-23T16:36:44.003Z,21.23
2018-03-23T16:39:12.870Z,20.17
2018-03-23T16:41:42.030Z,18.03
2018-03-23T16:44:10.994Z,18.60
2018-03-23T16:46:43.188Z,19.63
2018-03-23T16:49:13.794Z,18.43
2018-03-23T16:51:43.038Z,17.60
2018-03-23T16:54:11.947Z,18.97
2018-03-23T16:56:40.755Z,18.60
2018-03-23T16:59:09.735Z,20.67
2018-03-23T17:01:39.282Z,19.10
2018-03-23T17:04:09.034Z,19.37
2018-03-23T17:06:38.217Z,21.63
2018-03-23T17:09:07.997Z,18.03
2018-03-23T17:11:37.309Z,19.37
2018-03-23T17:14:06.677Z,17.43
2018-03-23T17:16:36.316Z,20.00
2018-03-23T17:19:05.840Z,20.93
2018-03-23T17:21:34.567Z,20.20
2018-03-23T17:24:03.609Z,19.10
2018-03-23T17:26:32.742Z,21.53
2018-03-23T17:29:01.735Z,20.03
2018-03-23T17:31:31.135Z,20.80
2018-03-23T17:33:59.873Z,22.10
2018-03-23T17:36:28.498Z,22.00
2018-03-23T17:38:57.388Z,21.10
2018-03-23T17:41:26.116Z,20.17
2018-03-23T17:43:57.956Z,22.77
2018-03-23T17:46:27.056Z,21.67
2018-03-23T17:48:56.102Z,21.80
2018-03-23T17:51:24.829Z,28.70
2018-03-23T17:53:53.539Z,22.97
2018-03-23T17:56:23.146Z,22.77
2018-03-23T17:58:52.929Z,25.45
2018-03-23T18:01:21.766Z,22.67
2018-03-23T18:03:50.455Z,24.40
2018-03-23T18:06:20.182Z,23.47
2018-03-23T18:08:48.749Z,21.73
2018-03-23T18:11:17.814Z,23.77
2018-03-23T18:13:47.140Z,24.30
2018-03-23T18:16:15.855Z,23.73
2018-03-23T18:18:44.796Z,22.40
2018-03-23T18:21:14.614Z,23.13
2018-03-23T18:23:43.768Z,22.03
2018-03-23T18:26:12.449Z,23.27
2018-03-23T18:28:41.276Z,23.13
2018-03-23T18:31:10.764Z,26.00
2018-03-23T18:33:39.336Z,23.13
2018-03-23T18:36:08.210Z,22.83
2018-03-23T18:38:36.877Z,25.37
2018-03-23T18:41:05.824Z,23.43
2018-03-23T18:43:35.494Z,23.53
2018-03-23T18:46:05.003Z,24.20
2018-03-23T18:48:34.302Z,23.67
2018-03-23T18:51:04.251Z,26.57
2018-03-23T18:53:32.950Z,23.57
2018-03-23T18:56:02.324Z,23.13
2018-03-23T18:58:32.357Z,24.40
2018-03-23T19:01:02.280Z,25.23
2018-03-23T19:03:32.295Z,21.17
2018-03-23T19:06:02.668Z,23.57
2018-03-23T19:08:31.910Z,21.33
2018-03-23T19:11:01.642Z,26.43
2018-03-23T19:13:30.376Z,20.17
2018-03-23T19:15:59.293Z,21.53
2018-03-23T19:18:28.707Z,22.40
2018-03-23T19:20:57.562Z,22.13
2018-03-23T19:23:28.694Z,22.33
2018-03-23T19:25:57.915Z,22.37
2018-03-23T19:28:28.574Z,23.03
2018-03-23T19:30:57.764Z,22.00
2018-03-23T19:33:27.226Z,21.13
2018-03-23T19:35:56.273Z,21.80
2018-03-23T19:38:25.128Z,21.17
2018-03-23T19:40:54.625Z,22.53
2018-03-23T19:43:23.992Z,22.70
2018-03-23T19:45:52.757Z,19.37
2018-03-23T19:48:21.376Z,22.33
2018-03-23T19:50:51.563Z,21.77
2018-03-23T19:53:21.197Z,21.70
2018-03-23T19:55:50.182Z,21.63
2018-03-23T19:58:19.148Z,21.53
2018-03-23T20:00:48.420Z,21.80
2018-03-23T20:03:18.288Z,21.60
2018-03-23T20:05:47.454Z,19.30
2018-03-23T20:08:16.934Z,20.37
2018-03-23T20:10:45.553Z,24.30
2018-03-23T20:13:14.233Z,22.63
2018-03-23T20:15:42.896Z,21.90
2018-03-23T20:18:16.607Z,23.43
2018-03-23T20:20:50.452Z,21.53
2018-03-23T20:23:19.096Z,21.03
2018-03-23T20:25:48.521Z,27.83
2018-03-23T20:28:22.566Z,24.77
2018-03-23T20:30:51.484Z,21.67
2018-03-23T20:33:20.907Z,20.77
2018-03-23T20:35:50.532Z,23.30
2018-03-23T20:38:19.181Z,23.27
2018-03-23T20:40:48.112Z,24.60
2018-03-23T20:43:16.955Z,21.97
2018-03-23T20:45:45.884Z,24.03
2018-03-23T20:48:14.740Z,22.37
2018-03-23T20:50:43.617Z,23.10
2018-03-23T20:53:12.358Z,24.17
2018-03-23T20:55:41.155Z,23.13
2018-03-23T20:58:10.812Z,21.73
2018-03-23T21:00:39.489Z,28.10
2018-03-23T21:03:08.422Z,23.40
2018-03-23T21:05:37.182Z,25.13
2018-03-23T21:08:06.488Z,26.13
2018-03-23T21:10:35.869Z,26.60
2018-03-23T21:13:04.580Z,26.87
2018-03-23T21:15:33.312Z,27.03
2018-03-23T21:18:02.089Z,27.20
2018-03-23T21:20:30.975Z,32.50
2018-03-23T21:22:59.788Z,29.83
2018-03-23T21:25:28.338Z,30.50
2018-03-23T21:27:56.999Z,30.33
2018-03-23T21:30:26.784Z,31.13
2018-03-23T21:32:55.964Z,35.27
2018-03-23T21:35:24.907Z,33.43
2018-03-23T21:37:53.439Z,35.57
2018-03-23T21:40:22.101Z,32.57
2018-03-23T21:42:51.519Z,34.40
2018-03-23T21:45:21.672Z,36.70
2018-03-23T21:47:51.676Z,37.30
2018-03-23T21:50:21.836Z,38.67
2018-03-23T21:52:51.087Z,38.07
2018-03-23T21:55:20.009Z,38.50
2018-03-23T21:57:49.592Z,34.20
2018-03-23T22:00:18.563Z,35.87
2018-03-23T22:02:47.469Z,36.00
2018-03-23T22:05:16.786Z,34.50
2018-03-23T22:07:45.738Z,33.37
2018-03-23T22:10:15.027Z,35.00
2018-03-23T22:12:44.504Z,32.67
2018-03-23T22:15:13.933Z,34.00
2018-03-23T22:17:42.961Z,30.13
2018-03-23T22:20:11.948Z,32.13
2018-03-23T22:22:40.967Z,33.73
2018-03-23T22:25:11.307Z,34.70
2018-03-23T22:27:40.273Z,35.07
2018-03-23T22:30:09.192Z,34.17
2018-03-23T22:32:38.901Z,38.87
2018-03-23T22:35:08.686Z,35.83
2018-03-23T22:37:37.575Z,39.40
2018-03-23T22:40:08.306Z,36.90
2018-03-23T22:42:37.597Z,33.90
2018-03-23T22:45:06.672Z,34.57
2018-03-23T22:47:35.697Z,34.53
2018-03-23T22:50:04.890Z,33.00
2018-03-23T22:52:35.349Z,33.33
2018-03-23T22:55:04.404Z,34.17
2018-03-23T22:57:33.741Z,30.97
2018-03-23T23:00:03.328Z,30.77
2018-03-23T23:02:32.815Z,32.17
2018-03-23T23:05:02.359Z,28.80
2018-03-23T23:07:31.926Z,31.87
2018-03-23T23:10:01.019Z,29.00
2018-03-23T23:12:30.530Z,36.73
2018-03-23T23:15:00.121Z,29.03
2018-03-23T23:17:29.206Z,29.33
2018-03-23T23:19:58.172Z,30.90
2018-03-23T23:22:27.772Z,24.83
2018-03-23T23:24:57.454Z,26.70
2018-03-23T23:27:27.246Z,23.60
2018-03-23T23:29:56.393Z,26.27
2018-03-23T23:32:25.293Z,30.63
2018-03-23T23:34:54.459Z,26.43
2018-03-23T23:37:24.169Z,25.03
2018-03-23T23:39:53.811Z,25.93
2018-03-23T23:42:23.349Z,28.40
2018-03-23T23:44:52.827Z,26.47
2018-03-23T23:47:21.828Z,30.57
2018-03-23T23:49:51.074Z,28.33
2018-03-23T23:52:20.690Z,30.03
2018-03-23T23:54:49.690Z,29.47
2018-03-23T23:57:18.744Z,28.77
2018-03-23T23:59:47.828Z,28.57
